Thompson Airport
CYTH : now visible

Airfield :











YOU CAN JOIN US ON...

 
LOGIN :

Register | Disclaimer

   EN    FR    IT 

 









Legend :    VFR   Marginal VFR   IFR   Intensive IFR   Very Intensive IFR
Visi :
Ceiling :
>= 8 km
>= 3000ft
5 to 8 km
1000 to 3000 ft
1500m to 5 km
500 to 1000 ft
800 to 1500m
200 to 500 ft
< 800m
< 200 ft
Symbols :   Thunderstorms  Fog  Heavy snow  Heavy precipitations  Wind > 20 kt






- Airport Elevation : 729 ft
- IATA code : YTH


CYTH - Thompson

CURRENT METAR :
  • 052300Z 09003KT 070V160 2 1/2SM -SN OVC030 M14/M16 A2970 RMK SC8 SLP086

EXPIRED METARs :
  • 052200Z 13003KT 080V200 2 1/2SM -SN VV024 M14/M17 A2971 RMK SN8 SLP090
  • 052141Z 12004KT 090V170 2 1/2SM -SN OVC040 M14/M17 A2971 RMK SC8 SLP092

TAF AMD TAF CYTH
Valid from the 05 at 20:00 until the 06 at 07:00 UTC


052015Z 0520/0607 14005KT 4SM -SN OVC020
TEMPO 0520/0602 1SM -SN OVC008
FM060200 10005KT 6SM -SN BKN015
TEMPO 0602/0607 3SM -SN BKN008 RMK NXT FCST BY 060100Z
CZWG FIR / North America



MET'MAP, your aeronautical weather chart ! - Copyright ORBIFLY December 2007 - Disclaimer

ORBIFLY MET'MAP TEAM :

Programming & Development : Alexandra Zaïnal
Original concept : Baudouin d'Aumeries
Technical & hardware support : Manuel Goepfert
Assistance : Marc-Olivier Méhu




SOURCES & CREDITS :

   NOAA       Earth
Advisory